world map with ATM marked

ATM - Airport

This information may not be accurate or current and is not valid for navigation or flight planning. No warranty of fitness for any purpose is made or implied.

flag of Paráflag of Brazil

Donate via PayPal

Additional information is available on the NEW Great Circle Mapper

Location
City:  Altamira, Pará, Brazil
ICAO / IATA:SBHT / ATM

Details
Type:Airport (Aerodrome, Airfield)
Latitude:3°15'14"S (-3.253905)
Longitude:52°15'14"W (-52.253977)
Datum:WGS 1984
Elevation:368 ft (112 m)
Runways:1
Longest:6572 × 125 ft (2003 × 38 m)

Time
Timezone:UTC+31:08 (DST+33:08)
Local Time:

Weather
METAR:SBHT  182100Z 05004KT 9999 FEW027TCU 29/25 Q1009
TAF:SBHT  (expired)

Related Locations
Nearby:
Farthest:MNA: 12351 mi / 19877 km
Melangguane [Melangguane Airport], SA, ID

Find:

   beyond  
but within

Other Information
Maps:
Links:
Sources:

  


 


Great Circle Mapper   Great Circle Mapper
Great Circle Mapper FAQ   Great Circle Mapper FAQ
  Karl's Home Page
KLS˛   KLS˛ Home
   GC on Facebook
Airlines of the World   Airlines of the World
Donate via PayPal


Copyright © 2004-2019, Karl L. Swartz. All rights reserved.
All trademarks mentioned herein belong to their respective owners.

Please see credits for attribution and copyright information.

Karl Swartz <karl@kls2.com>
  Powered by FreeBSD
Valid HTML 4.01!
Labeled with ICRA
hCard Microformat
Geo Microformat